Time;durP1;ratioP1;P1;durP2;ratioP2;P2;SDS_P1;SDS_P2;PMS_P1;PMS_P2;Temp;Humidity;BMP_temperature;BMP_pressure;BME280_temperature;BME280_humidity;BME280_pressure;Samples;Min_cycle;Max_cycle;Signal;HPM_P1;HPM_P2
2022/05/20 00:01:49;;;;;;;3.15;1.58;;;;;;;9.23;73.46;95704.63;5020187;28;20201;-81
2022/05/20 00:04:16;;;;;;;1.92;1.27;;;;;;;9.18;73.70;95702.00;5024425;28;20213;-81
2022/05/20 00:06:43;;;;;;;2.35;1.10;;;;;;;9.17;73.19;95694.19;5022075;28;20959;-81
2022/05/20 00:09:11;;;;;;;2.13;1.38;;;;;;;9.20;73.20;95702.50;5017406;28;20208;-81
2022/05/20 00:11:38;;;;;;;2.03;1.00;;;;;;;9.25;73.18;95697.03;5020333;28;20229;-82
2022/05/20 00:14:06;;;;;;;4.13;1.30;;;;;;;9.09;73.64;95681.31;5025009;28;20673;-82
2022/05/20 00:16:34;;;;;;;1.05;0.90;;;;;;;9.10;73.71;95696.44;5024077;28;20236;-82
2022/05/20 00:19:04;;;;;;;3.10;1.00;;;;;;;9.08;73.58;95695.94;5026538;28;20205;-81
2022/05/20 00:21:31;;;;;;;1.90;1.08;;;;;;;9.07;72.88;95697.03;5024316;28;20204;-81
2022/05/20 00:23:58;;;;;;;2.88;1.50;;;;;;;9.05;72.81;95701.91;5018273;28;20196;-81
2022/05/20 00:26:24;;;;;;;1.90;1.13;;;;;;;9.05;72.74;95702.72;5031022;28;20220;-81
2022/05/20 00:28:53;;;;;;;1.13;1.02;;;;;;;9.04;72.97;95706.50;5017637;28;20224;-81
2022/05/20 00:31:21;;;;;;;1.63;1.13;;;;;;;9.00;73.38;95705.50;5019035;28;20228;-81
2022/05/20 00:33:49;;;;;;;1.10;1.00;;;;;;;9.03;73.95;95714.91;5018494;28;20200;-81
2022/05/20 00:36:18;;;;;;;1.83;1.10;;;;;;;8.90;74.29;95711.03;5030722;28;20200;-81
2022/05/20 00:38:45;;;;;;;1.35;1.17;;;;;;;8.75;74.48;95712.03;5030589;28;20203;-81
2022/05/20 00:41:13;;;;;;;1.52;1.20;;;;;;;8.69;75.56;95736.69;5028144;28;20711;-81
2022/05/20 00:43:42;;;;;;;3.65;1.30;;;;;;;8.52;75.29;95727.16;5026210;28;20204;-81
2022/05/20 00:46:14;;;;;;;2.45;1.30;;;;;;;8.40;75.58;95734.03;5034905;28;20240;-81
2022/05/20 00:48:42;;;;;;;1.45;0.93;;;;;;;8.57;74.74;95733.59;5021312;28;20209;-82
2022/05/20 00:51:14;;;;;;;1.85;1.40;;;;;;;8.47;76.17;95735.31;5025091;28;20634;-82
2022/05/20 00:53:50;;;;;;;2.08;1.52;;;;;;;8.62;75.57;95730.81;5022275;28;20224;-82
2022/05/20 00:56:20;;;;;;;2.17;1.52;;;;;;;8.67;75.15;95733.47;5017982;28;20639;-82
2022/05/20 00:58:47;;;;;;;3.47;1.10;;;;;;;8.62;74.62;95730.81;5018342;28;20248;-82
2022/05/20 01:01:14;;;;;;;1.67;1.23;;;;;;;8.71;74.19;95731.81;5030413;28;20208;-82
2022/05/20 01:03:43;;;;;;;5.70;1.60;;;;;;;8.70;73.70;95727.50;5018177;28;20208;-82
2022/05/20 01:06:10;;;;;;;4.50;1.70;;;;;;;8.67;73.72;95722.66;5017969;28;20216;-82
2022/05/20 01:08:41;;;;;;;2.83;1.55;;;;;;;8.64;73.83;95729.44;5030382;28;20227;-82
2022/05/20 01:11:09;;;;;;;1.52;1.05;;;;;;;8.68;73.77;95724.28;5011276;28;20197;-82
2022/05/20 01:13:37;;;;;;;1.73;1.38;;;;;;;8.68;73.70;95719.69;5024426;28;20217;-82
2022/05/20 01:16:11;;;;;;;3.25;1.73;;;;;;;8.65;74.06;95716.75;5019481;28;20207;-82
2022/05/20 01:18:41;;;;;;;4.35;1.60;;;;;;;8.66;73.52;95715.66;5018182;28;20208;-81
2022/05/20 01:21:08;;;;;;;2.20;1.40;;;;;;;8.66;74.07;95715.66;5022743;28;20212;-80
2022/05/20 01:23:38;;;;;;;1.73;1.17;;;;;;;8.62;74.40;95714.63;5026340;28;20236;-81
2022/05/20 01:26:06;;;;;;;2.05;1.45;;;;;;;8.54;74.75;95714.19;5022541;28;20224;-80
2022/05/20 01:28:35;;;;;;;6.38;1.42;;;;;;;8.48;75.37;95715.31;5017429;28;20271;-81
2022/05/20 01:31:05;;;;;;;2.08;1.35;;;;;;;8.51;75.28;95717.44;5019484;28;20205;-81
2022/05/20 01:33:35;;;;;;;6.15;1.80;;;;;;;8.51;75.22;95714.75;5024500;28;20197;-81
2022/05/20 01:36:04;;;;;;;2.72;1.45;;;;;;;8.51;75.56;95717.44;5011225;28;20549;-81
2022/05/20 01:38:31;;;;;;;1.88;1.42;;;;;;;8.49;75.77;95711.53;5030742;28;20230;-81
2022/05/20 01:41:02;;;;;;;2.20;1.50;;;;;;;8.37;76.32;95721.91;5031029;28;20205;-81
2022/05/20 01:43:39;;;;;;;3.13;1.48;;;;;;;8.35;76.22;95721.41;5034535;28;20184;-81
2022/05/20 01:46:16;;;;;;;3.75;1.65;;;;;;;8.41;75.81;95720.25;5034689;28;20240;-81
2022/05/20 01:48:50;;;;;;;4.35;1.65;;;;;;;8.40;75.70;95712.44;5021018;28;20201;-81
2022/05/20 01:51:20;;;;;;;2.25;1.38;;;;;;;8.31;76.69;95714.94;5024404;28;20197;-81
2022/05/20 01:53:52;;;;;;;1.42;1.10;;;;;;;8.35;76.56;95712.50;5023177;28;20201;-81
2022/05/20 01:56:24;;;;;;;1.48;1.13;;;;;;;8.30;76.40;95712.53;5025888;28;20197;-81
2022/05/20 01:58:57;;;;;;;3.42;1.27;;;;;;;8.30;76.49;95717.94;5026876;28;20236;-83
2022/05/20 02:01:28;;;;;;;1.60;1.40;;;;;;;8.30;76.23;95713.34;5030351;28;20236;-81
2022/05/20 02:04:00;;;;;;;2.08;1.30;;;;;;;8.31;76.61;95714.94;5029337;28;20200;-82
2022/05/20 02:06:33;;;;;;;7.00;1.88;;;;;;;8.27;76.67;95718.50;5020076;28;20216;-80
2022/05/20 02:09:05;;;;;;;2.38;1.45;;;;;;;8.22;76.81;95722.03;5017715;28;20199;-81
2022/05/20 02:11:38;;;;;;;2.10;1.52;;;;;;;8.16;76.83;95720.50;5019491;28;20224;-81
2022/05/20 02:14:10;;;;;;;2.20;1.38;;;;;;;8.20;76.58;95718.81;5023670;28;20205;-82
2022/05/20 02:16:43;;;;;;;2.30;1.52;;;;;;;8.15;76.64;95719.69;5023328;28;20196;-83
2022/05/20 02:19:16;;;;;;;3.72;1.90;;;;;;;8.03;77.01;95723.88;5026434;28;20194;-82
2022/05/20 02:21:48;;;;;;;2.78;2.03;;;;;;;8.00;77.38;95724.44;5015341;28;20284;-82
2022/05/20 02:24:20;;;;;;;1.58;1.48;;;;;;;7.97;77.33;95728.50;5025285;28;20739;-81
2022/05/20 02:26:53;;;;;;;3.03;1.40;;;;;;;7.99;77.15;95718.22;5027086;28;20579;-82
2022/05/20 02:29:25;;;;;;;5.70;1.35;;;;;;;8.00;77.27;95735.22;5023878;28;20610;-82
2022/05/20 02:32:00;;;;;;;3.03;1.50;;;;;;;7.98;77.00;95732.81;5019937;28;20209;-82
2022/05/20 02:34:29;;;;;;;1.58;1.25;;;;;;;8.03;77.04;95743.56;5021085;28;20589;-82
2022/05/20 02:36:56;;;;;;;4.13;1.75;;;;;;;8.03;76.90;95740.88;5026524;28;20236;-81
2022/05/20 02:39:23;;;;;;;1.98;1.20;;;;;;;8.00;77.07;95735.22;5026478;28;20224;-81
2022/05/20 02:41:51;;;;;;;3.17;1.70;;;;;;;7.93;77.43;95730.13;5019548;28;20203;-82
2022/05/20 02:44:18;;;;;;;2.58;1.40;;;;;;;7.92;77.56;95735.84;5042935;28;20223;-81
2022/05/20 02:46:47;;;;;;;1.95;1.27;;;;;;;7.93;77.21;95732.03;5033167;28;20255;-82
2022/05/20 02:49:14;;;;;;;5.18;1.80;;;;;;;7.91;77.59;95731.53;5033617;28;20291;-81
2022/05/20 02:51:41;;;;;;;4.68;1.63;;;;;;;7.92;77.62;95725.06;5032928;28;20220;-82
2022/05/20 02:54:08;;;;;;;3.83;1.45;;;;;;;7.89;77.82;95722.91;5031815;28;20211;-82
2022/05/20 02:56:37;;;;;;;2.28;1.60;;;;;;;7.96;77.55;95717.97;5020697;28;20211;-82
2022/05/20 03:04:34;;;;;;;1.98;1.58;;;;;;;8.08;77.37;95721.09;5012951;28;20584;-82
2022/05/20 03:07:01;;;;;;;5.38;1.75;;;;;;;8.07;77.28;95720.28;5026264;28;20212;-82
2022/05/20 03:09:28;;;;;;;3.15;1.40;;;;;;;8.25;77.29;95720.69;5032357;28;20196;-81
2022/05/20 03:11:55;;;;;;;6.20;1.65;;;;;;;8.62;77.23;95711.91;5031439;28;20228;-82
2022/05/20 03:14:24;;;;;;;4.07;1.85;;;;;;;9.48;74.69;95710.75;5020221;28;20200;-82
2022/05/20 03:16:51;;;;;;;3.30;1.92;;;;;;;10.47;71.32;95705.06;5019709;28;20224;-82
2022/05/20 03:19:19;;;;;;;2.50;1.63;;;;;;;11.53;67.44;95699.28;5024791;28;20216;-82
2022/05/20 03:21:46;;;;;;;2.55;1.63;;;;;;;12.60;63.85;95694.69;5025267;28;20250;-82
2022/05/20 03:24:14;;;;;;;8.30;2.28;;;;;;;13.38;60.48;95682.91;5021102;28;20274;-82
2022/05/20 03:26:41;;;;;;;3.22;2.30;;;;;;;14.16;59.32;95696.47;5019015;28;20225;-81
2022/05/20 03:29:08;;;;;;;4.13;1.90;;;;;;;14.71;57.42;95688.31;5024192;28;20197;-81
2022/05/20 03:31:39;;;;;;;3.08;2.20;;;;;;;15.37;55.49;95688.59;5025698;28;20203;-80
2022/05/20 03:34:07;;;;;;;4.78;2.38;;;;;;;15.70;54.24;95690.63;5022060;28;20208;-81
2022/05/20 03:36:35;;;;;;;3.60;1.90;;;;;;;15.60;54.59;95687.16;5019735;28;20231;-81
2022/05/20 03:39:03;;;;;;;11.30;2.42;;;;;;;15.88;53.58;95689.31;5032491;28;20208;-79
2022/05/20 03:41:30;;;;;;;2.42;1.70;;;;;;;16.27;52.05;95697.00;5032642;28;20266;-79
2022/05/20 03:43:57;;;;;;;4.15;1.73;;;;;;;16.81;50.13;95696.91;5041863;28;20305;-80
2022/05/20 03:46:24;;;;;;;3.80;2.20;;;;;;;16.63;49.57;95703.72;5051978;28;20578;-79
2022/05/20 03:48:53;;;;;;;4.43;2.22;;;;;;;17.12;48.53;95706.50;5040981;28;20208;-80
2022/05/20 03:51:20;;;;;;;3.83;2.00;;;;;;;17.80;47.58;95701.16;5027348;28;20629;-80
2022/05/20 03:53:47;;;;;;;3.58;1.83;;;;;;;18.50;44.59;95713.34;5023919;28;20734;-81
2022/05/20 03:56:14;;;;;;;3.72;2.33;;;;;;;18.64;43.58;95712.94;5018691;28;20236;-82
2022/05/20 03:58:41;;;;;;;4.78;2.20;;;;;;;19.00;42.73;95715.44;5032593;28;20208;-80
2022/05/20 04:03:57;;;;;;;4.03;2.38;;;;;;;19.46;42.91;95721.25;5025253;28;20269;-79
2022/05/20 04:06:25;;;;;;;3.75;2.40;;;;;;;19.25;42.69;95718.03;5020523;28;20232;-80
2022/05/20 04:08:52;;;;;;;2.40;2.15;;;;;;;19.02;41.75;95718.63;5018642;28;20212;-81
2022/05/20 04:11:19;;;;;;;3.47;2.40;;;;;;;19.22;41.91;95721.47;5023148;28;20263;-80
2022/05/20 04:13:46;;;;;;;6.05;2.75;;;;;;;18.92;42.30;95719.19;5025012;28;20698;-80
2022/05/20 04:16:15;;;;;;;3.10;2.25;;;;;;;19.21;42.73;95714.38;5020569;28;20211;-80
2022/05/20 04:18:43;;;;;;;5.80;2.80;;;;;;;19.59;41.51;95703.53;5018522;28;20216;-83
2022/05/20 04:21:13;;;;;;;5.60;2.33;;;;;;;20.38;39.67;95705.97;5021431;28;20201;-81
2022/05/20 04:23:40;;;;;;;5.18;2.67;;;;;;;20.62;40.05;95704.88;5015986;28;20216;-81
2022/05/20 04:26:08;;;;;;;4.95;2.50;;;;;;;21.03;39.06;95698.53;5020738;28;20290;-80
2022/05/20 04:28:35;;;;;;;4.57;2.67;;;;;;;21.08;38.74;95706.47;5024993;28;20212;-80
2022/05/20 04:31:04;;;;;;;4.18;2.42;;;;;;;21.63;37.43;95695.94;5020666;28;20663;-79
2022/05/20 04:33:31;;;;;;;3.00;2.70;;;;;;;22.93;35.57;95692.41;5030850;28;20231;-79
2022/05/20 04:35:58;;;;;;;6.30;2.97;;;;;;;22.76;35.85;95695.75;5031266;28;20200;-78
2022/05/20 04:38:27;;;;;;;4.90;2.65;;;;;;;22.67;35.82;95688.59;5030903;28;20208;-78
2022/05/20 04:49:08;;;;;;;9.07;3.10;;;;;;;23.03;34.54;95708.28;5025974;28;20330;-80
2022/05/20 04:51:35;;;;;;;8.45;3.38;;;;;;;22.81;35.08;95706.50;5031880;28;20197;-78
2022/05/20 04:56:49;;;;;;;5.75;3.60;;;;;;;23.59;33.97;95723.78;5021280;28;20230;-81
2022/05/20 04:59:17;;;;;;;4.90;3.17;;;;;;;22.39;36.10;95726.94;5017909;28;20206;-79
2022/05/20 05:01:44;;;;;;;5.28;2.80;;;;;;;23.42;34.44;95724.41;5020691;28;20205;-80
2022/05/20 05:04:11;;;;;;;4.45;2.97;;;;;;;23.48;34.96;95725.66;5024259;28;20239;-79
2022/05/20 05:06:38;;;;;;;5.22;3.72;;;;;;;23.96;34.06;95716.13;5022125;28;20204;-80
2022/05/20 05:09:07;;;;;;;6.53;3.40;;;;;;;25.71;31.10;95712.59;5017727;28;20211;-82
2022/05/20 05:11:38;;;;;;;4.32;3.50;;;;;;;26.45;29.90;95716.41;5019477;28;20212;-79
2022/05/20 05:14:05;;;;;;;4.22;3.33;;;;;;;26.86;29.63;95713.81;5023730;28;20669;-78
2022/05/20 05:16:32;;;;;;;4.65;3.60;;;;;;;27.20;29.12;95712.03;5022980;28;20635;-80
2022/05/20 05:18:58;;;;;;;7.07;3.50;;;;;;;26.48;28.62;95716.41;5017091;28;20247;-82
2022/05/20 05:21:25;;;;;;;8.98;3.70;;;;;;;26.00;29.79;95724.47;5018678;28;20204;-81
2022/05/20 05:23:53;;;;;;;7.07;3.40;;;;;;;26.50;28.93;95707.66;5023918;28;20221;-79
2022/05/20 05:26:22;;;;;;;4.53;3.67;;;;;;;24.66;31.45;95717.63;5024528;28;20220;-77
2022/05/20 05:28:49;;;;;;;6.38;3.83;;;;;;;23.46;33.55;95731.56;5030180;28;20208;-78
2022/05/20 05:31:16;;;;;;;5.85;3.17;;;;;;;23.96;32.39;95721.66;5017587;28;20213;-77
2022/05/20 05:33:43;;;;;;;5.65;3.40;;;;;;;25.10;31.09;95722.09;5017454;28;20238;-79
2022/05/20 05:36:11;;;;;;;8.18;2.88;;;;;;;25.37;30.87;95726.09;5030721;28;20609;-77
2022/05/20 05:38:38;;;;;;;4.10;3.35;;;;;;;27.31;28.65;95711.97;5030553;28;20258;-79
2022/05/20 05:41:05;;;;;;;9.02;3.40;;;;;;;27.88;27.05;95711.50;5029642;28;20224;-78
2022/05/20 05:43:33;;;;;;;6.88;2.97;;;;;;;28.24;26.16;95707.16;5036296;28;20677;-77
2022/05/20 05:46:00;;;;;;;7.35;3.30;;;;;;;28.14;26.62;95702.47;5035983;28;20241;-79
2022/05/20 05:48:27;;;;;;;5.95;2.97;;;;;;;28.71;26.37;95701.75;5022033;28;20237;-80
2022/05/20 05:50:55;;;;;;;5.53;2.83;;;;;;;28.30;26.91;95694.31;5025627;28;20232;-80
2022/05/20 05:53:25;;;;;;;7.45;3.03;;;;;;;27.74;27.06;95706.06;5024508;28;20232;-81
2022/05/20 05:55:56;;;;;;;8.35;3.03;;;;;;;27.54;26.89;95703.81;5027922;28;20251;-78
2022/05/20 05:58:23;;;;;;;4.38;2.70;;;;;;;27.06;27.71;95709.34;5024088;28;20212;-79
2022/05/20 06:00:52;;;;;;;6.47;2.58;;;;;;;28.33;26.31;95703.06;5018515;28;20260;-77
2022/05/20 06:03:18;;;;;;;6.70;3.33;;;;;;;27.81;26.55;95700.41;5024625;28;20247;-81
2022/05/20 06:05:46;;;;;;;9.02;2.72;;;;;;;28.46;25.85;95701.31;5021279;28;20212;-81
2022/05/20 06:08:13;;;;;;;3.97;2.75;;;;;;;28.11;26.68;95703.28;5024178;28;20216;-80
2022/05/20 06:10:40;;;;;;;6.00;2.65;;;;;;;27.68;26.57;95707.69;5017873;28;20204;-80
2022/05/20 06:13:08;;;;;;;7.72;3.30;;;;;;;28.13;25.96;95706.44;5023547;28;20830;-82
2022/05/20 06:15:35;;;;;;;5.30;3.67;;;;;;;27.29;27.35;95703.22;5027819;28;20208;-81
2022/05/20 06:18:04;;;;;;;6.80;3.13;;;;;;;28.79;25.58;95696.94;5024212;28;20204;-83
2022/05/20 06:20:31;;;;;;;6.93;3.20;;;;;;;29.26;24.79;95706.19;5030603;28;20242;-84
2022/05/20 06:22:57;;;;;;;6.40;3.10;;;;;;;26.39;27.40;95706.91;5024755;28;20212;-84
2022/05/20 06:25:25;;;;;;;5.32;3.05;;;;;;;26.74;28.15;95701.19;5030721;28;20247;-84
2022/05/20 06:27:52;;;;;;;8.82;3.40;;;;;;;26.18;27.90;95716.88;5033329;28;20216;-84
2022/05/20 06:30:21;;;;;;;7.80;3.80;;;;;;;25.47;29.46;95711.41;5021570;28;20219;-80
2022/05/20 06:32:48;;;;;;;4.55;3.30;;;;;;;27.01;28.01;95692.31;5023085;28;20213;-81
2022/05/20 06:40:46;;;;;;;7.63;3.05;;;;;;;28.88;25.69;95680.44;5029357;28;20227;-80
2022/05/20 06:43:14;;;;;;;6.97;3.20;;;;;;;27.63;27.41;95697.00;5029316;28;20695;-82
2022/05/20 06:45:42;;;;;;;7.30;3.20;;;;;;;26.75;27.85;95699.97;5028249;28;20232;-79
2022/05/20 06:48:09;;;;;;;4.88;3.10;;;;;;;27.91;26.41;95693.94;5026216;28;20265;-79
2022/05/20 06:50:39;;;;;;;7.03;3.20;;;;;;;26.87;28.51;95699.50;5022326;28;20678;-76
2022/05/20 06:53:07;;;;;;;5.18;3.17;;;;;;;26.21;28.60;95695.84;5024371;28;20236;-87
2022/05/20 06:55:34;;;;;;;5.30;3.13;;;;;;;25.58;29.44;95713.38;5010633;28;20585;-83
2022/05/20 06:58:01;;;;;;;4.65;3.33;;;;;;;26.10;28.75;95695.84;5017042;28;20240;-81
2022/05/20 07:00:29;;;;;;;8.63;3.67;;;;;;;26.37;29.06;95698.97;5030080;28;20204;-77
2022/05/20 07:02:56;;;;;;;5.97;3.17;;;;;;;27.20;28.31;95688.97;5010485;28;20236;-80
2022/05/20 07:05:23;;;;;;;5.35;3.10;;;;;;;27.14;28.39;95694.19;5022822;28;20883;-80
2022/05/20 07:07:51;;;;;;;4.70;2.45;;;;;;;26.06;28.66;95695.09;5012913;28;20630;-81
2022/05/20 07:10:18;;;;;;;5.05;2.40;;;;;;;25.10;29.50;95699.91;5025554;28;20204;-87
2022/05/20 07:12:45;;;;;;;4.95;2.50;;;;;;;26.14;28.86;95685.53;5023868;28;20215;-80
2022/05/20 07:15:12;;;;;;;5.28;2.53;;;;;;;27.68;26.64;95677.84;5024150;28;20211;-87
2022/05/20 07:17:41;;;;;;;2.80;2.00;;;;;;;28.18;26.47;95672.56;5022741;28;20255;-84
2022/05/20 07:20:10;;;;;;;4.60;2.72;;;;;;;28.55;26.85;95687.66;5024267;28;20295;-81
2022/05/20 07:22:37;;;;;;;6.13;3.00;;;;;;;28.23;26.39;95683.25;5021011;28;20311;-86
2022/05/20 07:25:06;;;;;;;4.63;2.70;;;;;;;27.13;27.72;95689.03;5022426;28;20236;-85
2022/05/20 07:27:34;;;;;;;5.50;2.58;;;;;;;25.40;29.29;95697.56;5032272;28;20211;-83
2022/05/20 07:30:00;;;;;;;4.95;2.58;;;;;;;27.06;27.94;95689.09;5019715;28;20228;-84
2022/05/20 07:32:27;;;;;;;5.43;2.85;;;;;;;25.89;29.25;95695.91;5022540;28;20209;-81
2022/05/20 07:34:54;;;;;;;5.78;2.88;;;;;;;25.88;29.76;95694.34;5026351;28;20236;-84
2022/05/20 07:37:21;;;;;;;6.32;2.58;;;;;;;27.00;28.79;95685.16;5023380;28;20219;-87
2022/05/20 07:39:48;;;;;;;5.50;2.95;;;;;;;25.78;29.68;95689.59;5029506;28;20282;-81
2022/05/20 07:42:17;;;;;;;9.82;2.80;;;;;;;27.05;28.40;95681.94;5029749;28;20287;-83
2022/05/20 07:44:44;;;;;;;6.78;3.17;;;;;;;26.08;28.29;95684.38;5047017;28;20210;-86
2022/05/20 07:47:11;;;;;;;7.70;3.10;;;;;;;26.39;28.49;95679.09;5041117;28;20236;-83
2022/05/20 07:49:38;;;;;;;5.28;3.13;;;;;;;23.99;29.76;95693.19;5026616;28;20216;-83
2022/05/20 07:52:08;;;;;;;7.53;3.17;;;;;;;23.65;32.13;95689.81;5022343;28;20224;-79
2022/05/20 07:54:39;;;;;;;6.60;3.10;;;;;;;25.06;30.01;95688.03;5017363;28;20235;-83
2022/05/20 07:57:13;;;;;;;6.63;4.18;;;;;;;25.24;30.80;95683.28;5020857;28;20602;-87
2022/05/20 07:59:46;;;;;;;7.97;3.70;;;;;;;25.33;29.15;95675.34;5025882;28;20222;-80
2022/05/20 08:02:15;;;;;;;7.55;3.80;;;;;;;24.80;29.28;95670.53;5011859;28;20600;-82
2022/05/20 08:04:57;;;;;;;5.53;3.45;;;;;;;23.44;30.95;95680.56;5032208;28;20314;-76
2022/05/20 08:07:27;;;;;;;4.40;3.33;;;;;;;22.08;31.27;95680.41;5018511;28;20280;-80
2022/05/20 08:09:54;;;;;;;6.07;3.38;;;;;;;22.74;31.68;95676.00;5031674;28;20285;-81
2022/05/20 08:12:21;;;;;;;7.57;4.00;;;;;;;22.39;31.95;95680.00;5030624;28;20610;-82
2022/05/20 08:14:50;;;;;;;7.90;3.50;;;;;;;21.80;34.24;95678.84;5021173;28;20232;-80
2022/05/20 08:17:20;;;;;;;6.95;4.15;;;;;;;22.25;32.66;95674.31;5024325;28;20212;-82
2022/05/20 08:19:47;;;;;;;5.82;3.45;;;;;;;23.29;32.48;95671.38;5010823;28;20208;-83
2022/05/20 08:22:17;;;;;;;8.52;3.20;;;;;;;22.68;32.04;95661.75;5027916;28;20225;-77
2022/05/20 08:24:44;;;;;;;7.85;4.00;;;;;;;22.40;32.96;95667.78;5015921;28;20320;-80
2022/05/20 08:27:11;;;;;;;6.18;3.35;;;;;;;23.42;32.76;95658.03;5028529;28;20247;-80
2022/05/20 08:29:38;;;;;;;6.25;2.55;;;;;;;23.44;30.58;95655.69;5028540;28;20213;-81
2022/05/20 08:32:07;;;;;;;3.70;2.90;;;;;;;22.48;30.76;95672.19;5028752;28;20214;-79
2022/05/20 08:34:34;;;;;;;7.22;2.88;;;;;;;23.26;31.37;95672.94;5029108;28;20286;-84
2022/05/20 08:37:01;;;;;;;5.15;2.63;;;;;;;23.32;30.08;95660.34;5028507;28;20678;-78
2022/05/20 08:39:28;;;;;;;7.18;2.60;;;;;;;22.90;30.91;95665.53;5028949;28;20228;-77
2022/05/20 08:41:55;;;;;;;2.85;1.90;;;;;;;22.59;29.27;95650.19;5029499;28;20659;-86
2022/05/20 08:44:24;;;;;;;2.65;2.10;;;;;;;22.76;31.02;95648.78;5041476;28;20200;-82
2022/05/20 08:46:51;;;;;;;2.70;2.17;;;;;;;22.22;30.10;95658.50;5028336;28;20313;-89
2022/05/20 08:49:24;;;;;;;2.50;2.05;;;;;;;22.10;30.73;95656.00;5015911;28;20209;-78
2022/05/20 08:51:54;;;;;;;3.92;2.22;;;;;;;23.10;31.54;95647.53;5020292;28;20220;-78
2022/05/20 08:54:21;;;;;;;3.70;2.05;;;;;;;23.20;30.17;95646.81;5022523;28;20244;-82
2022/05/20 08:56:49;;;;;;;3.42;2.30;;;;;;;23.52;30.22;95647.06;5017496;28;20205;-82
2022/05/20 08:59:20;;;;;;;4.32;2.28;;;;;;;23.89;29.66;95630.28;5029267;28;20228;-87
2022/05/20 09:01:50;;;;;;;3.40;1.95;;;;;;;24.15;29.00;95637.50;5029736;28;20220;-82
2022/05/20 09:04:22;;;;;;;3.80;1.83;;;;;;;23.88;29.78;95620.38;5028044;28;20250;-81
2022/05/20 09:07:01;;;;;;;3.05;1.80;;;;;;;23.53;29.47;95625.72;5017545;28;20656;-82
2022/05/20 09:09:40;;;;;;;5.00;2.38;;;;;;;23.17;30.49;95617.19;5016519;28;20243;-79
2022/05/20 09:12:09;;;;;;;4.57;2.13;;;;;;;22.43;30.93;95611.78;5014972;28;20291;-84
2022/05/20 09:17:22;;;;;;;4.25;1.98;;;;;;;22.71;29.59;95608.47;5026707;28;20208;-85
2022/05/20 09:20:00;;;;;;;5.07;2.10;;;;;;;23.60;29.63;95598.91;5028634;28;20228;-85
2022/05/20 09:22:29;;;;;;;3.40;1.35;;;;;;;23.63;26.93;95602.88;5016809;28;20639;-83
2022/05/20 09:24:58;;;;;;;3.30;1.48;;;;;;;24.06;26.93;95603.81;5028343;28;20204;-85
2022/05/20 09:27:31;;;;;;;6.90;2.08;;;;;;;24.57;28.01;95595.28;5029507;28;20208;-81
2022/05/20 09:30:01;;;;;;;3.78;1.70;;;;;;;24.76;26.37;95592.13;5032546;28;20203;-81
2022/05/20 09:32:34;;;;;;;1.73;1.23;;;;;;;24.31;25.59;95585.34;5033069;28;20247;-84
2022/05/20 09:35:06;;;;;;;2.70;1.77;;;;;;;24.68;26.46;95587.78;5033576;28;20311;-84
2022/05/20 09:37:35;;;;;;;2.83;1.70;;;;;;;24.44;26.51;95580.22;5032640;28;20228;-81
2022/05/20 09:40:20;;;;;;;4.13;1.60;;;;;;;23.99;27.01;95578.91;5032253;28;20213;-83
2022/05/20 09:42:59;;;;;;;2.45;1.50;;;;;;;23.95;28.90;95576.09;5018364;28;20216;-83
2022/05/20 09:45:25;;;;;;;4.53;1.55;;;;;;;24.34;26.97;95572.69;5022725;28;20232;-81
2022/05/20 09:47:56;;;;;;;2.78;1.20;;;;;;;24.26;26.95;95573.84;5031748;28;20208;-81
2022/05/20 09:50:31;;;;;;;2.40;1.10;;;;;;;24.25;26.20;95569.50;5020804;28;20902;-88
2022/05/20 09:53:01;;;;;;;7.35;1.80;;;;;;;23.99;26.73;95571.38;5032358;28;20228;-83
2022/05/20 09:55:31;;;;;;;3.35;1.75;;;;;;;23.43;27.85;95571.09;5020921;28;20270;-86
2022/05/20 09:58:12;;;;;;;4.75;1.65;;;;;;;23.92;28.37;95562.25;5025596;28;20205;-89
2022/05/20 10:00:42;;;;;;;1.52;1.30;;;;;;;24.38;27.42;95559.63;5027252;28;20224;-86
2022/05/20 10:03:13;;;;;;;2.95;1.70;;;;;;;24.25;26.17;95556.44;5032490;28;20204;-82
2022/05/20 10:05:51;;;;;;;2.63;1.33;;;;;;;23.94;26.82;95557.91;5031738;28;20612;-84
2022/05/20 10:08:25;;;;;;;3.28;1.70;;;;;;;23.94;26.75;95552.38;5024436;28;20322;-83
2022/05/20 10:11:05;;;;;;;3.15;1.70;;;;;;;24.74;25.71;95552.91;5019632;28;20196;-85
2022/05/20 10:13:47;;;;;;;2.00;1.27;;;;;;;25.20;24.66;95531.91;5020097;28;20219;-81
2022/05/20 10:16:24;;;;;;;2.33;1.45;;;;;;;25.22;25.49;95529.53;5024248;28;20679;-85
2022/05/20 10:19:00;;;;;;;4.63;2.00;;;;;;;24.36;26.93;95537.88;5027000;28;20284;-82
2022/05/20 10:21:41;;;;;;;4.55;1.95;;;;;;;24.55;27.19;95533.94;5025786;28;20228;-85
2022/05/20 10:24:22;;;;;;;5.13;1.60;;;;;;;24.93;26.85;95534.31;5022140;28;20220;-83
2022/05/20 10:26:54;;;;;;;3.50;1.48;;;;;;;24.75;26.80;95534.31;5033868;28;20193;-82
2022/05/20 10:32:35;;;;;;;3.03;1.58;;;;;;;25.05;27.51;95514.50;5022805;28;20306;-84
2022/05/20 10:35:05;;;;;;;2.83;1.40;;;;;;;25.01;27.03;95508.97;5029719;28;20274;-85
2022/05/20 10:37:52;;;;;;;3.05;1.70;;;;;;;24.95;24.61;95512.56;5026064;28;20282;-84
2022/05/20 10:40:36;;;;;;;5.38;1.75;;;;;;;24.54;24.83;95518.50;5020989;28;20196;-78
2022/05/20 10:43:17;;;;;;;2.58;1.75;;;;;;;23.98;24.40;95514.44;5033637;28;20217;-87
2022/05/20 10:48:56;;;;;;;2.58;1.40;;;;;;;24.43;25.78;95507.41;5021514;28;20762;-83
2022/05/20 10:51:42;;;;;;;3.67;1.20;;;;;;;24.40;23.86;95501.88;5027150;28;20595;-85
2022/05/20 10:54:38;;;;;;;6.22;1.60;;;;;;;23.96;23.19;95508.50;5028427;28;20203;-85
2022/05/20 10:57:25;;;;;;;2.80;1.30;;;;;;;24.45;24.79;95495.94;5014452;28;20205;-88
2022/05/20 11:00:05;;;;;;;2.45;1.33;;;;;;;24.78;23.69;95495.50;5021910;28;20221;-84
2022/05/20 11:03:04;;;;;;;5.45;1.65;;;;;;;25.41;23.37;95482.72;5030471;28;20247;-87
2022/05/20 11:05:50;;;;;;;1.83;1.30;;;;;;;25.93;23.18;95479.31;5015339;28;20672;-85
2022/05/20 11:08:38;;;;;;;3.45;1.30;;;;;;;25.47;23.28;95475.53;5024417;28;20193;-83
2022/05/20 11:11:23;;;;;;;1.85;1.20;;;;;;;25.05;21.18;95470.94;5032837;28;20200;-79
2022/05/20 11:14:07;;;;;;;3.08;1.23;;;;;;;24.18;22.76;95475.31;5019432;28;20291;-84
2022/05/20 11:16:51;;;;;;;3.25;1.60;;;;;;;24.99;22.44;95466.22;5021094;28;20212;-86
2022/05/20 11:19:40;;;;;;;1.48;1.20;;;;;;;25.16;21.39;95454.25;5021242;28;20444;-86
2022/05/20 11:22:29;;;;;;;3.22;1.50;;;;;;;25.42;22.31;95462.06;5027966;28;20240;-88
2022/05/20 11:25:18;;;;;;;2.95;1.48;;;;;;;26.13;21.81;95456.16;5024724;28;20208;-83
2022/05/20 11:28:11;;;;;;;3.40;1.38;;;;;;;25.84;19.06;95451.97;5032818;28;20208;-83
2022/05/20 11:30:54;;;;;;;1.92;1.20;;;;;;;25.44;19.57;95442.25;5019606;28;20243;-84
2022/05/20 11:33:47;;;;;;;2.17;1.13;;;;;;;25.73;20.63;95442.94;5029220;28;20200;-88
2022/05/20 11:36:27;;;;;;;1.95;1.17;;;;;;;26.03;20.27;95439.56;5025346;28;20286;-84
2022/05/20 11:39:31;;;;;;;2.15;1.20;;;;;;;25.93;19.87;95435.69;5032969;28;20208;-86
2022/05/20 11:42:15;;;;;;;2.10;1.02;;;;;;;25.32;18.98;95429.63;5032911;28;20200;-79
2022/05/20 11:44:52;;;;;;;2.33;1.40;;;;;;;24.29;18.26;95445.69;5047499;28;20215;-84
2022/05/20 11:48:04;;;;;;;1.52;0.75;;;;;;;24.42;18.67;95441.31;5053965;28;20195;-78
2022/05/20 11:50:56;;;;;;;1.00;0.80;;;;;;;24.53;18.01;95439.31;5041775;28;20228;-78
2022/05/20 11:53:30;;;;;;;1.40;0.80;;;;;;;24.67;18.68;95427.44;5032207;28;20223;-85
2022/05/20 11:56:02;;;;;;;2.08;1.10;;;;;;;24.88;19.21;95409.94;5030957;28;20216;-86
2022/05/20 11:58:38;;;;;;;2.50;0.90;;;;;;;25.65;20.49;95413.66;5021514;28;20224;-82
2022/05/20 12:01:09;;;;;;;2.50;0.80;;;;;;;24.93;19.60;95418.69;5018933;28;20204;-80
2022/05/20 12:06:20;;;;;;;2.55;1.13;;;;;;;25.05;19.24;95404.38;5019002;28;20255;-79
2022/05/20 12:08:51;;;;;;;1.85;1.10;;;;;;;24.49;19.79;95410.03;5030332;28;20196;-80
2022/05/20 12:11:25;;;;;;;3.85;1.40;;;;;;;24.77;20.42;95412.75;5022796;28;20205;-83
2022/05/20 12:14:08;;;;;;;1.50;1.10;;;;;;;25.19;19.63;95400.75;5024066;28;20211;-78
2022/05/20 12:16:55;;;;;;;2.17;1.02;;;;;;;25.24;19.33;95399.56;5023150;28;20240;-82
2022/05/20 12:25:34;;;;;;;3.08;1.10;;;;;;;25.63;20.58;95382.72;5025910;28;20203;-85
2022/05/20 12:28:07;;;;;;;2.80;1.10;;;;;;;26.31;19.93;95377.47;5031714;28;20238;-86
2022/05/20 12:30:41;;;;;;;3.13;0.80;;;;;;;26.30;18.65;95381.47;5018034;28;20212;-85
2022/05/20 12:33:27;;;;;;;1.10;0.90;;;;;;;26.14;17.89;95374.41;5031358;28;20196;-82
2022/05/20 12:36:23;;;;;;;1.05;0.95;;;;;;;25.76;17.85;95369.94;5031666;28;20629;-84
2022/05/20 12:38:50;;;;;;;1.55;1.00;;;;;;;25.90;18.72;95371.84;5020587;28;20192;-84